PWSweather.com
Personal Weather Stations
Station Observations
CW9610
Rural Jefferson County, Mclouth, KS 66054

Rural Jefferson CountyMclouth, KS 66054

Lat: 39.1947, Lon: -95.238

Elevation: 1151

Station Type: Davis VP2

http://mclwx.info

Latest ConditionsUpdated 4:15:02 PM CDT Sunday, May 24, 2015
Currently Today's Max Today's Min Today's Average
Temperature 68.0°F20.0°C 69.6°F20.9°C 61.1°F16.2°C 65.0°F18.3°C
Dew Point 63.0°F17.2°C 64.6°F18.1°C 58.5°F14.7°C 61.6°F16.4°C
Winds 6.0 mph SW9.7 kmh SW 14.0 mph E22.5 kmh E - 5.0 mph 8.0 kmh
Wind Gusts 10.0 mph16.1 kmh 23.0 mph37.0 kmh - -
Humidity 84% 92% 80% 89%
Pressure 29.79 in1008.8 mb 29.94 in1013.9 mb 29.79 in1008.8 mb -
Precipitation - 0.54 in13.7 mm - -
Hour Temp Dew Point Humidity Winds Wind Gusts Pressure Precip Precip Rate Daily Precip Total
04:15 PM 68.0°F20.0°C 63.0°F17.2°C 84% 6.0 mph SW9.7 kmh SW 10.0 mph16.1 kmh 29.79 in1008.8 mb 0.00 in0.0 mm 0.00 in0.0 mm 0.54 in13.7 mm
04:00 PM 68.7°F20.4°C 63.3°F17.4°C 83% 5.0 mph SSW8.0 kmh SSW 10.0 mph16.1 kmh 29.79 in1008.8 mb 0.00 in0.0 mm 0.00 in0.0 mm 0.54 in13.7 mm
03:45 PM 69.4°F20.8°C 63.7°F17.6°C 82% 5.0 mph SSW8.0 kmh SSW 8.0 mph12.9 kmh 29.79 in1008.8 mb 0.00 in0.0 mm 0.00 in0.0 mm 0.54 in13.7 mm
03:30 PM 69.5°F20.8°C 63.8°F17.7°C 82% 5.0 mph SSW8.0 kmh SSW 9.0 mph14.5 kmh 29.79 in1008.8 mb 0.00 in0.0 mm 0.00 in0.0 mm 0.54 in13.7 mm
03:15 PM 69.1°F20.6°C 63.7°F17.6°C 83% 4.0 mph SSW6.4 kmh SSW 8.0 mph12.9 kmh 29.80 in1009.1 mb 0.00 in0.0 mm 0.00 in0.0 mm 0.54 in13.7 mm
03:00 PM 68.9°F20.5°C 63.9°F17.7°C 84% 4.0 mph SW6.4 kmh SW 9.0 mph14.5 kmh 29.80 in1009.1 mb 0.00 in0.0 mm 0.00 in0.0 mm 0.54 in13.7 mm
02:45 PM 68.7°F20.4°C 63.3°F17.4°C 83% 4.0 mph SW6.4 kmh SW 7.0 mph11.3 kmh 29.80 in1009.1 mb 0.00 in0.0 mm 0.00 in0.0 mm 0.54 in13.7 mm
02:30 PM 69.0°F20.6°C 63.3°F17.4°C 82% 4.0 mph SW6.4 kmh SW 9.0 mph14.5 kmh 29.80 in1009.1 mb 0.00 in0.0 mm 0.00 in0.0 mm 0.54 in13.7 mm
02:15 PM 69.0°F20.6°C 63.3°F17.4°C 82% 5.0 mph SW8.0 kmh SW 9.0 mph14.5 kmh 29.81 in1009.5 mb 0.00 in0.0 mm 0.00 in0.0 mm 0.54 in13.7 mm
02:00 PM 69.6°F20.9°C 63.2°F17.3°C 80% 4.0 mph SW6.4 kmh SW 8.0 mph12.9 kmh 29.81 in1009.5 mb 0.00 in0.0 mm 0.00 in0.0 mm 0.54 in13.7 mm
01:45 PM 69.3°F20.7°C 63.2°F17.3°C 81% 5.0 mph SW8.0 kmh SW 8.0 mph12.9 kmh 29.82 in1009.8 mb 0.00 in0.0 mm 0.00 in0.0 mm 0.54 in13.7 mm
01:30 PM 69.3°F20.7°C 63.9°F17.7°C 83% 5.0 mph SW8.0 kmh SW 9.0 mph14.5 kmh 29.81 in1009.5 mb 0.00 in0.0 mm 0.00 in0.0 mm 0.54 in13.7 mm
01:15 PM 68.6°F20.3°C 63.2°F17.3°C 83% 4.0 mph SW6.4 kmh SW 9.0 mph14.5 kmh 29.82 in1009.8 mb 0.01 in0.3 mm 0.00 in0.0 mm 0.54 in13.7 mm
01:00 PM 68.7°F20.4°C 64.0°F17.8°C 85% 4.0 mph SSW6.4 kmh SSW 7.0 mph11.3 kmh 29.82 in1009.8 mb 0.01 in0.3 mm 0.00 in0.0 mm 0.54 in13.7 mm
12:45 PM 68.3°F20.2°C 64.6°F18.1°C 88% 4.0 mph SSW6.4 kmh SSW 7.0 mph11.3 kmh 29.82 in1009.8 mb 0.01 in0.3 mm 0.00 in0.0 mm 0.54 in13.7 mm
12:30 PM 67.1°F19.5°C 63.4°F17.4°C 88% 4.0 mph SSW6.4 kmh SSW 7.0 mph11.3 kmh 29.83 in1010.2 mb 0.01 in0.3 mm 0.04 in1.0 mm 0.54 in13.7 mm
12:15 PM 66.9°F19.4°C 63.2°F17.3°C 88% 4.0 mph SSW6.4 kmh SSW 8.0 mph12.9 kmh 29.84 in1010.5 mb 0.00 in0.0 mm 0.00 in0.0 mm 0.53 in13.5 mm
12:00 PM 66.9°F19.4°C 63.2°F17.3°C 88% 4.0 mph SW6.4 kmh SW 9.0 mph14.5 kmh 29.84 in1010.5 mb 0.00 in0.0 mm 0.00 in0.0 mm 0.53 in13.5 mm
11:45 AM 66.7°F19.3°C 62.7°F17.1°C 87% 4.0 mph SSW6.4 kmh SSW 8.0 mph12.9 kmh 29.84 in1010.5 mb 0.00 in0.0 mm 0.00 in0.0 mm 0.53 in13.5 mm
11:30 AM 67.0°F19.4°C 63.0°F17.2°C 87% 5.0 mph SSW8.0 kmh SSW 8.0 mph12.9 kmh 29.84 in1010.5 mb 0.00 in0.0 mm 0.00 in0.0 mm 0.53 in13.5 mm
11:15 AM 67.1°F19.5°C 62.8°F17.1°C 86% 4.0 mph SSW6.4 kmh SSW 8.0 mph12.9 kmh 29.84 in1010.5 mb 0.00 in0.0 mm 0.00 in0.0 mm 0.53 in13.5 mm
11:00 AM 67.5°F19.7°C 62.5°F16.9°C 84% 5.0 mph SW8.0 kmh SW 8.0 mph12.9 kmh 29.83 in1010.2 mb 0.00 in0.0 mm 0.00 in0.0 mm 0.53 in13.5 mm
10:45 AM 67.6°F19.8°C 62.6°F17.0°C 84% 6.0 mph SW9.7 kmh SW 10.0 mph16.1 kmh 29.84 in1010.5 mb 0.01 in0.3 mm 0.00 in0.0 mm 0.53 in13.5 mm
10:30 AM 67.9°F19.9°C 62.9°F17.2°C 84% 5.0 mph SW8.0 kmh SW 10.0 mph16.1 kmh 29.84 in1010.5 mb 0.01 in0.3 mm 0.00 in0.0 mm 0.53 in13.5 mm
10:15 AM 67.6°F19.8°C 62.9°F17.2°C 85% 5.0 mph SW8.0 kmh SW 7.0 mph11.3 kmh 29.83 in1010.2 mb 0.01 in0.3 mm 0.00 in0.0 mm 0.53 in13.5 mm
10:00 AM 66.7°F19.3°C 62.4°F16.9°C 86% 4.0 mph SW6.4 kmh SW 8.0 mph12.9 kmh 29.83 in1010.2 mb 0.01 in0.3 mm 0.01 in0.3 mm 0.53 in13.5 mm
09:45 AM 66.1°F18.9°C 62.4°F16.9°C 88% 7.0 mph SW11.3 kmh SW 10.0 mph16.1 kmh 29.82 in1009.8 mb 0.00 in0.0 mm 0.00 in0.0 mm 0.52 in13.2 mm
09:30 AM 65.8°F18.8°C 61.8°F16.6°C 87% 7.0 mph SW11.3 kmh SW 12.0 mph19.3 kmh 29.82 in1009.8 mb 0.00 in0.0 mm 0.00 in0.0 mm 0.52 in13.2 mm
09:15 AM 66.7°F19.3°C 63.7°F17.6°C 90% 4.0 mph SW6.4 kmh SW 9.0 mph14.5 kmh 29.82 in1009.8 mb 0.00 in0.0 mm 0.00 in0.0 mm 0.52 in13.2 mm
09:00 AM 65.8°F18.8°C 63.1°F17.3°C 91% 5.0 mph SW8.0 kmh SW 8.0 mph12.9 kmh 29.82 in1009.8 mb 0.00 in0.0 mm 0.00 in0.0 mm 0.52 in13.2 mm
08:45 AM 65.0°F18.3°C 62.6°F17.0°C 92% 5.0 mph SW8.0 kmh SW 8.0 mph12.9 kmh 29.82 in1009.8 mb 0.00 in0.0 mm 0.00 in0.0 mm 0.52 in13.2 mm
08:30 AM 64.3°F17.9°C 61.9°F16.6°C 92% 5.0 mph SSW8.0 kmh SSW 7.0 mph11.3 kmh 29.82 in1009.8 mb 0.00 in0.0 mm 0.00 in0.0 mm 0.52 in13.2 mm
08:15 AM 63.8°F17.7°C 61.4°F16.3°C 92% 4.0 mph SW6.4 kmh SW 8.0 mph12.9 kmh 29.82 in1009.8 mb 0.00 in0.0 mm 0.00 in0.0 mm 0.52 in13.2 mm
08:00 AM 63.6°F17.6°C 61.2°F16.2°C 92% 4.0 mph SW6.4 kmh SW 9.0 mph14.5 kmh 29.83 in1010.2 mb 0.00 in0.0 mm 0.00 in0.0 mm 0.52 in13.2 mm
07:45 AM 63.7°F17.6°C 61.3°F16.3°C 92% 4.0 mph SW6.4 kmh SW 6.0 mph9.7 kmh 29.84 in1010.5 mb 0.00 in0.0 mm 0.00 in0.0 mm 0.52 in13.2 mm
07:30 AM 63.6°F17.6°C 61.2°F16.2°C 92% 4.0 mph SW6.4 kmh SW 7.0 mph11.3 kmh 29.84 in1010.5 mb 0.00 in0.0 mm 0.00 in0.0 mm 0.52 in13.2 mm
07:15 AM 63.5°F17.5°C 61.1°F16.2°C 92% 3.0 mph SW4.8 kmh SW 7.0 mph11.3 kmh 29.85 in1010.8 mb 0.00 in0.0 mm 0.00 in0.0 mm 0.52 in13.2 mm
07:00 AM 63.3°F17.4°C 60.9°F16.1°C 92% 3.0 mph SW4.8 kmh SW 6.0 mph9.7 kmh 29.84 in1010.5 mb 0.00 in0.0 mm 0.00 in0.0 mm 0.52 in13.2 mm
06:45 AM 63.2°F17.3°C 60.8°F16.0°C 92% 2.0 mph SSW3.2 kmh SSW 5.0 mph8.0 kmh 29.84 in1010.5 mb 0.00 in0.0 mm 0.00 in0.0 mm 0.52 in13.2 mm
06:30 AM 63.0°F17.2°C 60.6°F15.9°C 92% 1.0 mph SSE1.6 kmh SSE 4.0 mph6.4 kmh 29.83 in1010.2 mb 0.00 in0.0 mm 0.00 in0.0 mm 0.52 in13.2 mm
06:15 AM 62.9°F17.2°C 60.5°F15.8°C 92% Calm Calm 3.0 mph4.8 kmh 29.82 in1009.8 mb 0.00 in0.0 mm 0.00 in0.0 mm 0.52 in13.2 mm
06:00 AM 62.8°F17.1°C 60.4°F15.8°C 92% 1.0 mph SSE1.6 kmh SSE 3.0 mph4.8 kmh 29.82 in1009.8 mb 0.00 in0.0 mm 0.00 in0.0 mm 0.52 in13.2 mm
05:45 AM 62.7°F17.1°C 60.3°F15.7°C 92% 2.0 mph S3.2 kmh S 3.0 mph4.8 kmh 29.82 in1009.8 mb 0.00 in0.0 mm 0.00 in0.0 mm 0.52 in13.2 mm
05:30 AM 62.5°F16.9°C 60.1°F15.6°C 92% 1.0 mph S1.6 kmh S 3.0 mph4.8 kmh 29.81 in1009.5 mb 0.00 in0.0 mm 0.00 in0.0 mm 0.52 in13.2 mm
05:15 AM 62.5°F16.9°C 60.1°F15.6°C 92% 1.0 mph S1.6 kmh S 3.0 mph4.8 kmh 29.82 in1009.8 mb 0.00 in0.0 mm 0.00 in0.0 mm 0.52 in13.2 mm
05:00 AM 62.5°F16.9°C 60.1°F15.6°C 92% 1.0 mph S1.6 kmh S 3.0 mph4.8 kmh 29.82 in1009.8 mb 0.00 in0.0 mm 0.00 in0.0 mm 0.52 in13.2 mm
04:45 AM 62.6°F17.0°C 60.2°F15.7°C 92% 1.0 mph S1.6 kmh S 3.0 mph4.8 kmh 29.82 in1009.8 mb 0.00 in0.0 mm 0.00 in0.0 mm 0.52 in13.2 mm
04:30 AM 62.5°F16.9°C 60.1°F15.6°C 92% 1.0 mph S1.6 kmh S 1.0 mph1.6 kmh 29.83 in1010.2 mb 0.00 in0.0 mm 0.00 in0.0 mm 0.52 in13.2 mm
04:15 AM 62.5°F16.9°C 60.1°F15.6°C 92% 1.0 mph S1.6 kmh S 5.0 mph8.0 kmh 29.83 in1010.2 mb 0.00 in0.0 mm 0.00 in0.0 mm 0.52 in13.2 mm
04:00 AM 62.6°F17.0°C 60.2°F15.7°C 92% 3.0 mph S4.8 kmh S 3.0 mph4.8 kmh 29.83 in1010.2 mb 0.00 in0.0 mm 0.00 in0.0 mm 0.52 in13.2 mm
03:45 AM 62.6°F17.0°C 60.2°F15.7°C 92% 4.0 mph SE6.4 kmh SE 8.0 mph12.9 kmh 29.84 in1010.5 mb 0.00 in0.0 mm 0.00 in0.0 mm 0.52 in13.2 mm
03:30 AM 62.6°F17.0°C 60.2°F15.7°C 92% 5.0 mph SE8.0 kmh SE 9.0 mph14.5 kmh 29.84 in1010.5 mb 0.01 in0.3 mm 0.00 in0.0 mm 0.52 in13.2 mm
03:15 AM 62.5°F16.9°C 60.1°F15.6°C 92% 5.0 mph SSE8.0 kmh SSE 10.0 mph16.1 kmh 29.85 in1010.8 mb 0.01 in0.3 mm 0.00 in0.0 mm 0.52 in13.2 mm
03:00 AM 62.2°F16.8°C 59.8°F15.4°C 92% 6.0 mph SE9.7 kmh SE 13.0 mph20.9 kmh 29.85 in1010.8 mb 0.02 in0.5 mm 0.00 in0.0 mm 0.52 in13.2 mm
02:45 AM 62.0°F16.7°C 59.6°F15.3°C 92% 6.0 mph SE9.7 kmh SE 11.0 mph17.7 kmh 29.85 in1010.8 mb 0.02 in0.5 mm 0.00 in0.0 mm 0.52 in13.2 mm
02:30 AM 61.8°F16.6°C 59.5°F15.3°C 92% 8.0 mph SE12.9 kmh SE 16.0 mph25.7 kmh 29.85 in1010.8 mb 0.03 in0.8 mm 0.00 in0.0 mm 0.50 in12.7 mm
02:15 AM 61.8°F16.6°C 59.5°F15.3°C 92% 10.0 mph ESE16.1 kmh ESE 18.0 mph29.0 kmh 29.85 in1010.8 mb 0.07 in1.8 mm 0.00 in0.0 mm 0.50 in12.7 mm
02:00 AM 61.9°F16.6°C 59.5°F15.3°C 92% 13.0 mph E20.9 kmh E 21.0 mph33.8 kmh 29.84 in1010.5 mb 0.07 in1.8 mm 0.00 in0.0 mm 0.49 in12.4 mm
01:45 AM 61.8°F16.6°C 59.5°F15.3°C 92% 9.0 mph ESE14.5 kmh ESE 19.0 mph30.6 kmh 29.85 in1010.8 mb 0.09 in2.3 mm 0.00 in0.0 mm 0.49 in12.4 mm
01:30 AM 61.8°F16.6°C 59.5°F15.3°C 92% 12.0 mph E19.3 kmh E 18.0 mph29.0 kmh 29.87 in1011.5 mb 0.11 in2.8 mm 0.00 in0.0 mm 0.47 in11.9 mm
01:15 AM 61.9°F16.6°C 59.5°F15.3°C 92% 11.0 mph E17.7 kmh E 19.0 mph30.6 kmh 29.89 in1012.2 mb 0.35 in8.9 mm 0.00 in0.0 mm 0.44 in11.2 mm
01:00 AM 61.9°F16.6°C 59.5°F15.3°C 92% 13.0 mph E20.9 kmh E 23.0 mph37.0 kmh 29.91 in1012.9 mb 0.43 in10.9 mm 0.00 in0.0 mm 0.43 in10.9 mm
12:45 AM 61.7°F16.5°C 59.4°F15.2°C 92% 9.0 mph E14.5 kmh E 23.0 mph37.0 kmh 29.92 in1013.2 mb 0.45 in11.4 mm 0.00 in0.0 mm 0.40 in10.2 mm
12:30 AM 61.5°F16.4°C 59.2°F15.1°C 92% 8.0 mph ESE12.9 kmh ESE 17.0 mph27.4 kmh 29.94 in1013.9 mb 0.45 in11.4 mm 0.76 in19.3 mm 0.36 in9.1 mm
12:15 AM 61.3°F16.3°C 59.0°F15.0°C 92% 9.0 mph E14.5 kmh E 14.0 mph22.5 kmh 29.94 in1013.9 mb 0.26 in6.6 mm 0.00 in0.0 mm 0.09 in2.3 mm
12:00 AM 61.1°F16.2°C 58.5°F14.7°C 91% 14.0 mph E22.5 kmh E 22.0 mph35.4 kmh 29.93 in1013.5 mb 0.32 in8.1 mm 0.00 in0.0 mm 0.32 in8.1 mm